Wind from 238 at 2 knots gusting 2

Air temperature 13.9° C
Dewpoint 11.8° C

Last reported at 2014-Apr-21 08:57 UTC.
Time now 2014-Apr-21 10:14 UTC

Location: N 34°08' W 117°57'.
View on Google Maps.

See reports from other nearby stations

Tides Stations Pressure Air Temp Water Temp Dewpoint Dewpoint depression Visibility Wind Speed Wind Dir Waves Ship positions

  
sailing weather and tide predictions

SANTA FE DAM CA US weather

date/time (UTC)wind fromknots sea level pressurealtimeterstation pressurevisibilityair tempwater tempwave heightnotes
2014-Apr-21 08:57 238 2 gusting 2 13.9
2014-Apr-21 07:57 254 1 gusting 2 13.3
2014-Apr-21 06:57 289 1 gusting 2 15.0
2014-Apr-21 05:57 224 1 gusting 3 15.0
2014-Apr-21 04:57 220 2 gusting 6 17.2
2014-Apr-21 03:57 220 3 gusting 5 17.8
2014-Apr-21 02:57 211 2 gusting 8 21.1
2014-Apr-21 01:57 229 5 gusting 12 23.9
2014-Apr-21 00:57 229 6 gusting 14 26.1
2014-Apr-20 23:57 222 6 gusting 15 27.8
2014-Apr-20 22:57 204 8 gusting 15 30.6
2014-Apr-20 21:57 232 6 gusting 13 30.0
2014-Apr-20 20:57 213 6 gusting 13 29.4
2014-Apr-20 19:57 231 5 gusting 11 28.3
2014-Apr-20 18:57 258 3 gusting 12 27.2
2014-Apr-20 17:57 210 3 gusting 7 26.1
2014-Apr-20 16:57 194 3 gusting 8 22.8
2014-Apr-20 15:57 082 2 gusting 5 20.6
2014-Apr-20 14:57 121 1 gusting 4 17.2
2014-Apr-20 13:57 010 1 gusting 2 12.2
2014-Apr-20 12:57 332 1 gusting 2 10.6
2014-Apr-20 11:57 247 1 gusting 4 12.2
2014-Apr-20 10:57 359 0 gusting 3 11.7
2014-Apr-20 09:57 296 2 gusting 3 13.3
2014-Apr-20 08:57 049 1 gusting 6 13.3
2014-Apr-20 07:57 002 1 gusting 6 15.6
2014-Apr-20 06:57 358 2 gusting 4 13.9
2014-Apr-20 05:57 261 2 gusting 2 15.6
2014-Apr-20 04:57 214 2 gusting 4 15.0
2014-Apr-20 03:57 186 3 gusting 6 15.6
2014-Apr-20 02:57 211 3 gusting 10 17.2
2014-Apr-20 01:57 226 6 gusting 13 20.6
2014-Apr-20 00:57 224 6 gusting 15 24.4
2014-Apr-19 23:57 240 7 gusting 13 26.1
2014-Apr-19 22:57 226 7 gusting 16 26.7
2014-Apr-19 21:57 227 6 gusting 15 27.2
2014-Apr-19 20:57 221 7 gusting 13 26.7
2014-Apr-19 19:57 244 6 gusting 13 26.1
2014-Apr-19 18:57 204 5 gusting 10 25.0
2014-Apr-19 17:57 013 3 gusting 9 24.4
2014-Apr-19 16:57 243 4 gusting 9 21.7
2014-Apr-19 15:57 264 3 gusting 8 18.9
2014-Apr-19 14:57 331 1 gusting 6 16.7
2014-Apr-19 13:57 043 3 gusting 7 12.8
2014-Apr-19 12:57 006 1 gusting 5 11.7
2014-Apr-19 11:57 022 3 gusting 6 13.3
2014-Apr-19 10:57 023 2 gusting 6 13.3